Time,TemperatureF,DewpointF,PressureIn,WindDirection,WindDirectionDegrees,WindSpeedMPH,WindSpeedGustMPH,Humidity,HourlyPrecipIn,Conditions,Clouds,dailyrainin,SoftwareType,DateUTC
2013-01-08 00:22:00,26.0,-99.9,30.35,NNW,331,-999.0,-999.0,-999,-99.99,,,-99.99,,2013-01-08 05:22:00,
2013-01-08 00:33:00,26.0,-99.9,30.35,NNW,331,-999.0,-999.0,-999,-99.99,,,-99.99,,2013-01-08 05:33:00,
2013-01-08 00:43:00,26.0,-99.9,30.35,NNW,331,-999.0,-999.0,-999,-99.99,,,-99.99,,2013-01-08 05:43:00,
2013-01-08 00:52:00,26.0,-99.9,30.35,West,268,-999.0,4.0,-999,-99.99,,,-99.99,,2013-01-08 05:52:00,
2013-01-08 01:33:00,26.0,-99.9,30.35,West,268,-999.0,4.0,-999,-99.99,,,-99.99,,2013-01-08 06:33:00,
2013-01-08 01:43:00,26.0,-99.9,30.35,West,268,-999.0,4.0,-999,-99.99,,,-99.99,,2013-01-08 06:43:00,
2013-01-08 01:52:00,28.0,-99.9,30.34,WSW,245,-999.0,-999.0,-999,-99.99,,,-99.99,,2013-01-08 06:52:00,
2013-01-08 02:22:00,28.0,-99.9,30.34,WSW,245,-999.0,-999.0,-999,-99.99,,,-99.99,,2013-01-08 07:22:00,
2013-01-08 02:32:00,28.0,-99.9,30.34,WSW,245,-999.0,-999.0,-999,-99.99,,,-99.99,,2013-01-08 07:32:00,
2013-01-08 02:42:00,28.0,-99.9,30.34,WSW,245,-999.0,-999.0,-999,-99.99,,,-99.99,,2013-01-08 07:42:00,
2013-01-08 02:52:00,26.0,-99.9,30.34,WSW,245,-999.0,-999.0,-999,-99.99,,,-99.99,,2013-01-08 07:52:00,
2013-01-08 03:22:00,26.0,-99.9,30.34,WSW,245,-999.0,-999.0,-999,-99.99,,,-99.99,,2013-01-08 08:22:00,
2013-01-08 03:33:00,26.0,-99.9,30.34,WSW,245,-999.0,-999.0,-999,-99.99,,,-99.99,,2013-01-08 08:33:00,
2013-01-08 03:42:00,26.0,-99.9,30.34,WSW,245,-999.0,-999.0,-999,-99.99,,,-99.99,,2013-01-08 08:42:00,
2013-01-08 03:52:00,25.0,-99.9,30.33,WSW,245,-999.0,-999.0,-999,-99.99,,,-99.99,,2013-01-08 08:52:00,
2013-01-08 04:22:00,25.0,-99.9,30.33,WSW,245,-999.0,-999.0,-999,-99.99,,,-99.99,,2013-01-08 09:22:00,
2013-01-08 04:33:00,25.0,-99.9,30.33,WSW,245,-999.0,-999.0,-999,-99.99,,,-99.99,,2013-01-08 09:33:00,
2013-01-08 04:42:00,25.0,-99.9,30.33,WSW,245,-999.0,-999.0,-999,-99.99,,,-99.99,,2013-01-08 09:42:00,
2013-01-08 04:52:00,24.0,-99.9,30.34,WSW,245,-999.0,-999.0,-999,-99.99,,,-99.99,,2013-01-08 09:52:00,
2013-01-08 05:22:00,24.0,-99.9,30.34,WSW,245,-999.0,-999.0,-999,-99.99,,,-99.99,,2013-01-08 10:22:00,
2013-01-08 05:33:00,24.0,-99.9,30.34,WSW,245,-999.0,-999.0,-999,-99.99,,,-99.99,,2013-01-08 10:33:00,
2013-01-08 05:43:00,24.0,-99.9,30.34,WSW,245,-999.0,-999.0,-999,-99.99,,,-99.99,,2013-01-08 10:43:00,
2013-01-08 05:52:00,24.0,-99.9,30.34,WSW,245,-999.0,-999.0,-999,-99.99,,,-99.99,,2013-01-08 10:52:00,
2013-01-08 06:23:00,24.0,-99.9,30.34,WSW,245,-999.0,-999.0,-999,-99.99,,,-99.99,,2013-01-08 11:23:00,
2013-01-08 06:33:00,24.0,-99.9,30.34,WSW,245,-999.0,-999.0,-999,-99.99,,,-99.99,,2013-01-08 11:33:00,
2013-01-08 06:43:00,24.0,-99.9,30.34,WSW,245,-999.0,-999.0,-999,-99.99,,,-99.99,,2013-01-08 11:43:00,
2013-01-08 06:52:00,24.0,-99.9,30.35,WSW,245,-999.0,-999.0,-999,-99.99,,,-99.99,,2013-01-08 11:52:00,
2013-01-08 07:22:00,24.0,-99.9,30.35,WSW,245,-999.0,-999.0,-999,-99.99,,,-99.99,,2013-01-08 12:22:00,
2013-01-08 07:33:00,24.0,-99.9,30.35,WSW,245,-999.0,-999.0,-999,-99.99,,,-99.99,,2013-01-08 12:33:00,
2013-01-08 07:43:00,24.0,-99.9,30.35,WSW,245,-999.0,-999.0,-999,-99.99,,,-99.99,,2013-01-08 12:43:00,
2013-01-08 07:52:00,24.0,-99.9,30.38,WSW,245,-999.0,-999.0,-999,-99.99,,,-99.99,,2013-01-08 12:52:00,
2013-01-08 08:22:00,24.0,-99.9,30.38,WSW,245,-999.0,-999.0,-999,-99.99,,,-99.99,,2013-01-08 13:22:00,
2013-01-08 08:33:00,24.0,-99.9,30.38,WSW,245,-999.0,-999.0,-999,-99.99,,,-99.99,,2013-01-08 13:33:00,
2013-01-08 08:43:00,24.0,-99.9,30.38,WSW,245,-999.0,-999.0,-999,-99.99,,,-99.99,,2013-01-08 13:43:00,
2013-01-08 09:52:00,34.0,-99.9,30.38,WSW,245,-999.0,-999.0,-999,-99.99,,,-99.99,,2013-01-08 14:52:00,
2013-01-08 10:23:00,34.0,-99.9,30.38,WSW,245,-999.0,-999.0,-999,-99.99,,,-99.99,,2013-01-08 15:23:00,
2013-01-08 10:33:00,34.0,-99.9,30.38,WSW,245,-999.0,-999.0,-999,-99.99,,,-99.99,,2013-01-08 15:33:00,
2013-01-08 10:43:00,34.0,-99.9,30.38,WSW,245,-999.0,-999.0,-999,-99.99,,,-99.99,,2013-01-08 15:43:00,
2013-01-08 12:52:00,46.0,-99.9,30.31,South,186,-999.0,10.0,-999,-99.99,,,-99.99,,2013-01-08 17:52:00,
2013-01-08 13:24:00,46.0,-99.9,30.31,South,186,-999.0,10.0,-999,-99.99,,,-99.99,,2013-01-08 18:24:00,
2013-01-08 13:33:00,46.0,-99.9,30.31,South,186,-999.0,10.0,-999,-99.99,,,-99.99,,2013-01-08 18:33:00,
2013-01-08 13:43:00,46.0,-99.9,30.31,South,186,-999.0,10.0,-999,-99.99,,,-99.99,,2013-01-08 18:43:00,
2013-01-08 13:52:00,47.0,-99.9,30.30,SSW,202,-999.0,7.0,-999,-99.99,,,-99.99,,2013-01-08 18:52:00,
2013-01-08 14:23:00,47.0,-99.9,30.30,SSW,202,-999.0,7.0,-999,-99.99,,,-99.99,,2013-01-08 19:23:00,
2013-01-08 14:33:00,47.0,-99.9,30.30,SSW,202,-999.0,7.0,-999,-99.99,,,-99.99,,2013-01-08 19:33:00,
2013-01-08 14:43:00,47.0,-99.9,30.30,SSW,202,-999.0,7.0,-999,-99.99,,,-99.99,,2013-01-08 19:43:00,
2013-01-08 14:52:00,49.0,-99.9,30.31,WSW,238,-999.0,10.0,-999,-99.99,,,-99.99,,2013-01-08 19:52:00,
2013-01-08 15:23:00,49.0,-99.9,30.31,WSW,238,-999.0,10.0,-999,-99.99,,,-99.99,,2013-01-08 20:23:00,
2013-01-08 15:33:00,49.0,-99.9,30.31,WSW,238,-999.0,10.0,-999,-99.99,,,-99.99,,2013-01-08 20:33:00,
2013-01-08 15:43:00,49.0,-99.9,30.31,WSW,238,-999.0,10.0,-999,-99.99,,,-99.99,,2013-01-08 20:43:00,
2013-01-08 15:52:00,48.0,-99.9,30.30,SSW,199,-999.0,-999.0,-999,-99.99,,,-99.99,,2013-01-08 20:52:00,
2013-01-08 16:23:00,48.0,-99.9,30.30,SSW,199,-999.0,-999.0,-999,-99.99,,,-99.99,,2013-01-08 21:23:00,
2013-01-08 16:33:00,48.0,-99.9,30.30,SSW,199,-999.0,-999.0,-999,-99.99,,,-99.99,,2013-01-08 21:33:00,
2013-01-08 16:43:00,48.0,-99.9,30.30,SSW,199,-999.0,-999.0,-999,-99.99,,,-99.99,,2013-01-08 21:43:00,
2013-01-08 16:52:00,46.0,-99.9,30.31,South,182,-999.0,-999.0,-999,-99.99,,,-99.99,,2013-01-08 21:52:00,
2013-01-08 17:23:00,46.0,-99.9,30.31,South,182,-999.0,-999.0,-999,-99.99,,,-99.99,,2013-01-08 22:23:00,
2013-01-08 17:33:00,46.0,-99.9,30.31,South,182,-999.0,-999.0,-999,-99.99,,,-99.99,,2013-01-08 22:33:00,
2013-01-08 17:43:00,46.0,-99.9,30.31,South,182,-999.0,-999.0,-999,-99.99,,,-99.99,,2013-01-08 22:43:00,
2013-01-08 17:52:00,42.0,-99.9,30.32,SW,225,-999.0,-999.0,-999,-99.99,,,-99.99,,2013-01-08 22:52:00,
2013-01-08 18:23:00,42.0,-99.9,30.32,SW,225,-999.0,-999.0,-999,-99.99,,,-99.99,,2013-01-08 23:23:00,
2013-01-08 18:33:00,42.0,-99.9,30.32,SW,225,-999.0,-999.0,-999,-99.99,,,-99.99,,2013-01-08 23:33:00,
2013-01-08 18:43:00,42.0,-99.9,30.32,SW,225,-999.0,-999.0,-999,-99.99,,,-99.99,,2013-01-08 23:43:00,
2013-01-08 18:52:00,41.0,-99.9,30.34,South,170,-999.0,4.0,-999,-99.99,,,-99.99,,2013-01-08 23:52:00,
2013-01-08 19:23:00,41.0,-99.9,30.34,South,170,-999.0,4.0,-999,-99.99,,,-99.99,,2013-01-09 00:23:00,
2013-01-08 19:33:00,41.0,-99.9,30.34,South,170,-999.0,4.0,-999,-99.99,,,-99.99,,2013-01-09 00:33:00,
2013-01-08 19:43:00,41.0,-99.9,30.34,South,170,-999.0,4.0,-999,-99.99,,,-99.99,,2013-01-09 00:43:00,
2013-01-08 19:52:00,40.0,-99.9,30.34,SSE,155,-999.0,-999.0,-999,-99.99,,,-99.99,,2013-01-09 00:52:00,
2013-01-08 20:22:00,40.0,-99.9,30.34,SSE,155,-999.0,-999.0,-999,-99.99,,,-99.99,,2013-01-09 01:22:00,
2013-01-08 20:33:00,40.0,-99.9,30.34,SSE,155,-999.0,-999.0,-999,-99.99,,,-99.99,,2013-01-09 01:33:00,
2013-01-08 20:43:00,40.0,-99.9,30.34,SSE,155,-999.0,-999.0,-999,-99.99,,,-99.99,,2013-01-09 01:43:00,
2013-01-08 20:52:00,37.0,-99.9,30.34,SSE,155,-999.0,-999.0,-999,-99.99,,,-99.99,,2013-01-09 01:52:00,
2013-01-08 21:23:00,37.0,-99.9,30.34,SSE,155,-999.0,-999.0,-999,-99.99,,,-99.99,,2013-01-09 02:23:00,
2013-01-08 21:33:00,37.0,-99.9,30.34,SSE,155,-999.0,-999.0,-999,-99.99,,,-99.99,,2013-01-09 02:33:00,
2013-01-08 21:43:00,37.0,-99.9,30.34,SSE,155,-999.0,-999.0,-999,-99.99,,,-99.99,,2013-01-09 02:43:00,
2013-01-08 21:52:00,33.0,-99.9,30.34,SSE,155,-999.0,-999.0,-999,-99.99,,,-99.99,,2013-01-09 02:52:00,
2013-01-08 22:22:00,33.0,-99.9,30.34,SSE,155,-999.0,-999.0,-999,-99.99,,,-99.99,,2013-01-09 03:22:00,
2013-01-08 22:33:00,33.0,-99.9,30.34,SSE,155,-999.0,-999.0,-999,-99.99,,,-99.99,,2013-01-09 03:33:00,
2013-01-08 22:43:00,33.0,-99.9,30.34,SSE,155,-999.0,-999.0,-999,-99.99,,,-99.99,,2013-01-09 03:43:00,
2013-01-08 22:52:00,31.0,-99.9,30.35,SSE,155,-999.0,-999.0,-999,-99.99,,,-99.99,,2013-01-09 03:52:00,
2013-01-08 23:23:00,31.0,-99.9,30.35,SSE,155,-999.0,-999.0,-999,-99.99,,,-99.99,,2013-01-09 04:23:00,
2013-01-08 23:33:00,31.0,-99.9,30.35,SSE,155,-999.0,-999.0,-999,-99.99,,,-99.99,,2013-01-09 04:33:00,
2013-01-08 23:43:00,31.0,-99.9,30.35,SSE,155,-999.0,-999.0,-999,-99.99,,,-99.99,,2013-01-09 04:43:00,
2013-01-08 23:52:00,29.0,-99.9,30.35,SSE,155,-999.0,-999.0,-999,-99.99,,,-99.99,,2013-01-09 04:52:00,